sensor_id;sensor_type;location;lat;lon;timestamp;pressure;altitude;pressure_sealevel;temperature;humidity
7335;BME280;3708;42.632;23.378;2022-11-20T00:00:21;93621.09;;;16.97;60.62
7335;BME280;3708;42.632;23.378;2022-11-20T00:02:48;93595.25;;;16.62;61.56
7335;BME280;3708;42.632;23.378;2022-11-20T00:05:15;93612.28;;;16.71;61.44
7335;BME280;3708;42.632;23.378;2022-11-20T00:07:42;93630.91;;;16.93;60.95
7335;BME280;3708;42.632;23.378;2022-11-20T00:10:09;93609.34;;;16.87;61.01
7335;BME280;3708;42.632;23.378;2022-11-20T00:12:36;93614.19;;;16.74;61.20
7335;BME280;3708;42.632;23.378;2022-11-20T00:15:05;93604.72;;;16.66;61.33
7335;BME280;3708;42.632;23.378;2022-11-20T00:17:32;93635.41;;;16.85;60.89
7335;BME280;3708;42.632;23.378;2022-11-20T00:19:59;93607.72;;;16.58;60.74
7335;BME280;3708;42.632;23.378;2022-11-20T00:22:26;93592.00;;;17.00;57.61
7335;BME280;3708;42.632;23.378;2022-11-20T00:24:53;93584.53;;;17.48;56.66
7335;BME280;3708;42.632;23.378;2022-11-20T00:27:19;93584.56;;;17.66;55.29
7335;BME280;3708;42.632;23.378;2022-11-20T00:29:46;93566.00;;;17.97;53.87
7335;BME280;3708;42.632;23.378;2022-11-20T00:32:15;93586.38;;;18.46;52.42
7335;BME280;3708;42.632;23.378;2022-11-20T00:34:41;93590.06;;;18.77;52.20
7335;BME280;3708;42.632;23.378;2022-11-20T00:37:08;93579.53;;;18.63;51.93
7335;BME280;3708;42.632;23.378;2022-11-20T00:39:35;93580.25;;;18.74;52.09
7335;BME280;3708;42.632;23.378;2022-11-20T00:42:02;93596.47;;;18.90;51.04
7335;BME280;3708;42.632;23.378;2022-11-20T00:44:29;93602.16;;;18.88;51.40
7335;BME280;3708;42.632;23.378;2022-11-20T00:46:56;93580.00;;;19.20;50.30
7335;BME280;3708;42.632;23.378;2022-11-20T00:49:24;93572.38;;;19.29;49.94
7335;BME280;3708;42.632;23.378;2022-11-20T00:51:51;93621.34;;;19.21;50.01
7335;BME280;3708;42.632;23.378;2022-11-20T00:54:18;93625.84;;;19.38;49.32
7335;BME280;3708;42.632;23.378;2022-11-20T00:56:45;93634.59;;;19.24;49.65
7335;BME280;3708;42.632;23.378;2022-11-20T00:59:12;93628.59;;;19.10;49.62
7335;BME280;3708;42.632;23.378;2022-11-20T01:01:39;93605.06;;;19.19;49.73
7335;BME280;3708;42.632;23.378;2022-11-20T01:04:06;93607.41;;;19.02;49.14
7335;BME280;3708;42.632;23.378;2022-11-20T01:06:37;93600.81;;;19.35;48.16
7335;BME280;3708;42.632;23.378;2022-11-20T01:09:05;93587.38;;;19.60;47.27
7335;BME280;3708;42.632;23.378;2022-11-20T01:11:34;93592.66;;;19.63;47.56
7335;BME280;3708;42.632;23.378;2022-11-20T01:14:05;93600.75;;;19.46;48.13
7335;BME280;3708;42.632;23.378;2022-11-20T01:16:34;93608.94;;;19.69;47.51
7335;BME280;3708;42.632;23.378;2022-11-20T01:19:04;93585.19;;;19.96;47.14
7335;BME280;3708;42.632;23.378;2022-11-20T01:21:33;93575.19;;;19.62;47.59
7335;BME280;3708;42.632;23.378;2022-11-20T01:24:02;93590.22;;;19.25;48.13
7335;BME280;3708;42.632;23.378;2022-11-20T01:26:31;93595.53;;;19.25;48.67
7335;BME280;3708;42.632;23.378;2022-11-20T01:28:59;93574.81;;;19.64;47.97
7335;BME280;3708;42.632;23.378;2022-11-20T01:31:28;93574.84;;;19.60;47.92
7335;BME280;3708;42.632;23.378;2022-11-20T01:33:57;93560.53;;;19.44;48.25
7335;BME280;3708;42.632;23.378;2022-11-20T01:36:26;93523.81;;;19.32;48.53
7335;BME280;3708;42.632;23.378;2022-11-20T01:38:55;93543.53;;;19.31;48.23
7335;BME280;3708;42.632;23.378;2022-11-20T01:41:27;93547.97;;;19.48;47.87
7335;BME280;3708;42.632;23.378;2022-11-20T01:44:14;93548.69;;;19.55;47.56
7335;BME280;3708;42.632;23.378;2022-11-20T01:46:50;93544.94;;;19.53;47.76
7335;BME280;3708;42.632;23.378;2022-11-20T01:49:23;93550.34;;;19.32;48.68
7335;BME280;3708;42.632;23.378;2022-11-20T01:51:52;93525.78;;;19.21;49.14
7335;BME280;3708;42.632;23.378;2022-11-20T01:54:26;93529.13;;;19.32;47.96
7335;BME280;3708;42.632;23.378;2022-11-20T01:56:57;93547.63;;;19.46;48.29
7335;BME280;3708;42.632;23.378;2022-11-20T01:59:27;93535.88;;;19.47;48.47
7335;BME280;3708;42.632;23.378;2022-11-20T02:01:55;93538.53;;;19.43;48.82
7335;BME280;3708;42.632;23.378;2022-11-20T02:04:23;93538.69;;;19.15;49.43
7335;BME280;3708;42.632;23.378;2022-11-20T02:06:53;93549.31;;;19.15;49.33
7335;BME280;3708;42.632;23.378;2022-11-20T02:09:24;93561.03;;;19.25;48.96
7335;BME280;3708;42.632;23.378;2022-11-20T02:11:51;93583.88;;;19.08;49.07
7335;BME280;3708;42.632;23.378;2022-11-20T02:14:21;93563.91;;;18.82;49.39
7335;BME280;3708;42.632;23.378;2022-11-20T02:16:48;93558.13;;;19.01;49.52
7335;BME280;3708;42.632;23.378;2022-11-20T02:19:22;93567.84;;;19.26;49.05
7335;BME280;3708;42.632;23.378;2022-11-20T02:21:58;93565.56;;;19.28;48.83
7335;BME280;3708;42.632;23.378;2022-11-20T02:24:28;93552.75;;;19.12;47.62
7335;BME280;3708;42.632;23.378;2022-11-20T02:26:59;93550.00;;;19.26;46.59
7335;BME280;3708;42.632;23.378;2022-11-20T02:29:31;93560.78;;;19.63;44.76
7335;BME280;3708;42.632;23.378;2022-11-20T02:32:00;93557.25;;;19.77;44.16
7335;BME280;3708;42.632;23.378;2022-11-20T02:34:28;93563.41;;;20.11;43.96
7335;BME280;3708;42.632;23.378;2022-11-20T02:36:55;93555.56;;;20.38;42.96
7335;BME280;3708;42.632;23.378;2022-11-20T02:39:24;93548.59;;;20.81;41.92
7335;BME280;3708;42.632;23.378;2022-11-20T02:41:54;93547.06;;;21.14;41.22
7335;BME280;3708;42.632;23.378;2022-11-20T02:44:22;93573.41;;;21.35;40.94
7335;BME280;3708;42.632;23.378;2022-11-20T02:46:49;93568.41;;;21.41;40.78
7335;BME280;3708;42.632;23.378;2022-11-20T02:49:15;93573.69;;;21.67;40.59
7335;BME280;3708;42.632;23.378;2022-11-20T02:52:00;93581.75;;;21.37;41.08
7335;BME280;3708;42.632;23.378;2022-11-20T02:54:27;93574.47;;;21.41;40.54
7335;BME280;3708;42.632;23.378;2022-11-20T02:56:55;93607.31;;;21.01;41.61
7335;BME280;3708;42.632;23.378;2022-11-20T02:59:22;93577.81;;;21.18;41.53
7335;BME280;3708;42.632;23.378;2022-11-20T03:01:49;93597.91;;;21.53;40.88
7335;BME280;3708;42.632;23.378;2022-11-20T03:04:16;93595.38;;;21.43;41.38
7335;BME280;3708;42.632;23.378;2022-11-20T03:06:43;93605.88;;;21.26;41.47
7335;BME280;3708;42.632;23.378;2022-11-20T03:09:10;93604.41;;;21.22;41.72
7335;BME280;3708;42.632;23.378;2022-11-20T03:11:37;93603.50;;;21.59;41.08
7335;BME280;3708;42.632;23.378;2022-11-20T03:14:05;93580.91;;;21.17;41.79
7335;BME280;3708;42.632;23.378;2022-11-20T03:16:44;93584.25;;;21.21;41.81
7335;BME280;3708;42.632;23.378;2022-11-20T03:19:12;93601.63;;;21.33;41.81
7335;BME280;3708;42.632;23.378;2022-11-20T03:21:39;93609.56;;;21.36;41.73
7335;BME280;3708;42.632;23.378;2022-11-20T03:24:07;93619.53;;;21.28;41.79
7335;BME280;3708;42.632;23.378;2022-11-20T03:26:34;93602.44;;;21.56;41.20
7335;BME280;3708;42.632;23.378;2022-11-20T03:29:02;93592.91;;;21.55;41.27
7335;BME280;3708;42.632;23.378;2022-11-20T03:31:33;93603.16;;;21.30;41.65
7335;BME280;3708;42.632;23.378;2022-11-20T03:34:00;93596.16;;;21.43;41.51
7335;BME280;3708;42.632;23.378;2022-11-20T03:36:29;93605.44;;;21.32;41.53
7335;BME280;3708;42.632;23.378;2022-11-20T03:38:56;93605.53;;;21.51;41.30
7335;BME280;3708;42.632;23.378;2022-11-20T03:41:25;93612.78;;;21.24;41.73
7335;BME280;3708;42.632;23.378;2022-11-20T03:43:54;93628.91;;;21.10;42.17
7335;BME280;3708;42.632;23.378;2022-11-20T03:46:22;93616.22;;;20.87;42.33
7335;BME280;3708;42.632;23.378;2022-11-20T03:48:50;93626.31;;;21.33;41.64
7335;BME280;3708;42.632;23.378;2022-11-20T03:51:19;93631.81;;;20.89;42.02
7335;BME280;3708;42.632;23.378;2022-11-20T03:53:48;93601.94;;;21.08;41.79
7335;BME280;3708;42.632;23.378;2022-11-20T03:56:17;93604.59;;;21.08;41.83
7335;BME280;3708;42.632;23.378;2022-11-20T03:58:44;93613.91;;;21.23;41.63
7335;BME280;3708;42.632;23.378;2022-11-20T04:01:13;93631.03;;;21.22;41.43
7335;BME280;3708;42.632;23.378;2022-11-20T04:03:41;93623.63;;;21.06;41.57
7335;BME280;3708;42.632;23.378;2022-11-20T04:06:12;93613.16;;;21.22;41.24
7335;BME280;3708;42.632;23.378;2022-11-20T04:08:41;93620.91;;;21.40;41.23
7335;BME280;3708;42.632;23.378;2022-11-20T04:11:09;93620.13;;;21.13;41.64
7335;BME280;3708;42.632;23.378;2022-11-20T04:13:36;93628.41;;;21.18;41.37
7335;BME280;3708;42.632;23.378;2022-11-20T04:16:04;93630.44;;;21.41;41.19
7335;BME280;3708;42.632;23.378;2022-11-20T04:18:31;93619.22;;;21.53;40.78
7335;BME280;3708;42.632;23.378;2022-11-20T04:20:59;93644.34;;;21.22;41.33
7335;BME280;3708;42.632;23.378;2022-11-20T04:23:28;93635.31;;;21.16;41.55
7335;BME280;3708;42.632;23.378;2022-11-20T04:26:00;93630.06;;;21.39;41.09
7335;BME280;3708;42.632;23.378;2022-11-20T04:28:27;93646.56;;;21.27;41.17
7335;BME280;3708;42.632;23.378;2022-11-20T04:30:54;93653.09;;;21.22;40.95
7335;BME280;3708;42.632;23.378;2022-11-20T04:33:27;93666.25;;;21.37;41.26
7335;BME280;3708;42.632;23.378;2022-11-20T04:35:54;93644.47;;;21.11;41.91
7335;BME280;3708;42.632;23.378;2022-11-20T04:38:21;93654.75;;;21.13;42.16
7335;BME280;3708;42.632;23.378;2022-11-20T04:40:49;93656.44;;;21.30;42.15
7335;BME280;3708;42.632;23.378;2022-11-20T04:43:16;93636.25;;;20.99;42.78
7335;BME280;3708;42.632;23.378;2022-11-20T04:45:50;93652.03;;;21.16;42.88
7335;BME280;3708;42.632;23.378;2022-11-20T04:48:17;93638.59;;;21.27;42.49
7335;BME280;3708;42.632;23.378;2022-11-20T04:50:44;93632.59;;;20.86;43.45
7335;BME280;3708;42.632;23.378;2022-11-20T04:53:11;93634.75;;;20.98;43.26
7335;BME280;3708;42.632;23.378;2022-11-20T04:55:38;93627.63;;;21.21;42.74
7335;BME280;3708;42.632;23.378;2022-11-20T04:58:06;93627.72;;;21.14;42.83
7335;BME280;3708;42.632;23.378;2022-11-20T05:00:33;93637.41;;;21.32;42.49
7335;BME280;3708;42.632;23.378;2022-11-20T05:03:00;93630.81;;;21.09;43.11
7335;BME280;3708;42.632;23.378;2022-11-20T05:05:27;93630.25;;;21.25;42.70
7335;BME280;3708;42.632;23.378;2022-11-20T05:07:55;93632.91;;;21.25;42.79
7335;BME280;3708;42.632;23.378;2022-11-20T05:10:22;93640.25;;;20.80;44.91
7335;BME280;3708;42.632;23.378;2022-11-20T05:12:50;93643.63;;;20.50;45.34
7335;BME280;3708;42.632;23.378;2022-11-20T05:15:18;93635.78;;;20.74;45.18
7335;BME280;3708;42.632;23.378;2022-11-20T05:17:47;93623.13;;;20.81;45.66
7335;BME280;3708;42.632;23.378;2022-11-20T05:20:14;93620.22;;;20.72;46.59
7335;BME280;3708;42.632;23.378;2022-11-20T05:22:41;93616.50;;;20.63;47.24
7335;BME280;3708;42.632;23.378;2022-11-20T05:25:08;93608.19;;;20.57;47.72
7335;BME280;3708;42.632;23.378;2022-11-20T05:27:35;93615.66;;;20.32;48.58
7335;BME280;3708;42.632;23.378;2022-11-20T05:30:02;93615.00;;;20.21;48.92
7335;BME280;3708;42.632;23.378;2022-11-20T05:32:31;93604.38;;;20.17;49.63
7335;BME280;3708;42.632;23.378;2022-11-20T05:34:58;93604.28;;;19.80;51.05
7335;BME280;3708;42.632;23.378;2022-11-20T05:37:25;93609.44;;;19.53;51.76
7335;BME280;3708;42.632;23.378;2022-11-20T05:39:52;93606.78;;;19.50;52.18
7335;BME280;3708;42.632;23.378;2022-11-20T05:42:19;93604.25;;;19.22;53.21
7335;BME280;3708;42.632;23.378;2022-11-20T05:44:58;93599.41;;;19.10;53.38
7335;BME280;3708;42.632;23.378;2022-11-20T05:47:25;93599.13;;;18.90;53.90
7335;BME280;3708;42.632;23.378;2022-11-20T05:49:53;93595.34;;;18.87;54.02
7335;BME280;3708;42.632;23.378;2022-11-20T05:52:23;93593.88;;;18.76;54.19
7335;BME280;3708;42.632;23.378;2022-11-20T05:54:49;93581.41;;;18.69;54.34
7335;BME280;3708;42.632;23.378;2022-11-20T05:57:16;93583.97;;;18.83;54.02
7335;BME280;3708;42.632;23.378;2022-11-20T05:59:43;93588.56;;;18.76;54.53
7335;BME280;3708;42.632;23.378;2022-11-20T06:02:10;93585.50;;;18.84;54.18
7335;BME280;3708;42.632;23.378;2022-11-20T06:04:37;93590.06;;;18.80;54.00
7335;BME280;3708;42.632;23.378;2022-11-20T06:07:06;93605.19;;;18.90;53.88
7335;BME280;3708;42.632;23.378;2022-11-20T06:09:33;93615.06;;;18.86;54.17
7335;BME280;3708;42.632;23.378;2022-11-20T06:12:00;93597.50;;;19.07;53.71
7335;BME280;3708;42.632;23.378;2022-11-20T06:14:27;93601.94;;;19.31;53.29
7335;BME280;3708;42.632;23.378;2022-11-20T06:16:53;93604.97;;;19.33;53.05
7335;BME280;3708;42.632;23.378;2022-11-20T06:19:20;93604.63;;;19.27;53.03
7335;BME280;3708;42.632;23.378;2022-11-20T06:21:47;93605.41;;;19.21;52.93
7335;BME280;3708;42.632;23.378;2022-11-20T06:24:17;93610.34;;;19.26;52.87
7335;BME280;3708;42.632;23.378;2022-11-20T06:26:44;93612.16;;;19.43;52.23
7335;BME280;3708;42.632;23.378;2022-11-20T06:29:11;93619.69;;;19.48;52.37
7335;BME280;3708;42.632;23.378;2022-11-20T06:31:38;93624.56;;;19.60;51.95
7335;BME280;3708;42.632;23.378;2022-11-20T06:34:08;93626.16;;;19.43;52.26
7335;BME280;3708;42.632;23.378;2022-11-20T06:36:34;93619.63;;;19.58;51.70
7335;BME280;3708;42.632;23.378;2022-11-20T06:39:02;93620.69;;;19.71;51.23
7335;BME280;3708;42.632;23.378;2022-11-20T06:41:34;93615.38;;;19.71;51.39
7335;BME280;3708;42.632;23.378;2022-11-20T06:44:04;93611.09;;;19.88;50.75
7335;BME280;3708;42.632;23.378;2022-11-20T06:46:31;93615.91;;;20.00;50.46
7335;BME280;3708;42.632;23.378;2022-11-20T06:48:58;93617.22;;;19.82;50.80
7335;BME280;3708;42.632;23.378;2022-11-20T06:51:25;93620.59;;;19.82;50.42
7335;BME280;3708;42.632;23.378;2022-11-20T06:53:53;93614.91;;;19.84;50.36
7335;BME280;3708;42.632;23.378;2022-11-20T06:56:20;93621.19;;;20.07;49.64
7335;BME280;3708;42.632;23.378;2022-11-20T06:58:49;93633.41;;;19.98;50.03
7335;BME280;3708;42.632;23.378;2022-11-20T07:01:17;93634.38;;;20.18;49.41
7335;BME280;3708;42.632;23.378;2022-11-20T07:03:44;93634.63;;;20.37;49.18
7335;BME280;3708;42.632;23.378;2022-11-20T07:06:11;93649.31;;;20.49;48.66
7335;BME280;3708;42.632;23.378;2022-11-20T07:08:38;93639.78;;;20.51;48.38
7335;BME280;3708;42.632;23.378;2022-11-20T07:11:06;93650.19;;;20.76;47.79
7335;BME280;3708;42.632;23.378;2022-11-20T07:13:33;93643.28;;;20.82;47.31
7335;BME280;3708;42.632;23.378;2022-11-20T07:16:09;93653.88;;;20.86;47.12
7335;BME280;3708;42.632;23.378;2022-11-20T07:18:38;93644.28;;;20.58;47.36
7335;BME280;3708;42.632;23.378;2022-11-20T07:21:10;93648.66;;;20.75;46.98
7335;BME280;3708;42.632;23.378;2022-11-20T07:23:39;93653.09;;;20.89;46.60
7335;BME280;3708;42.632;23.378;2022-11-20T07:26:09;93652.75;;;20.87;46.21
7335;BME280;3708;42.632;23.378;2022-11-20T07:28:39;93642.69;;;20.68;46.48
7335;BME280;3708;42.632;23.378;2022-11-20T07:31:18;93646.31;;;20.84;46.14
7335;BME280;3708;42.632;23.378;2022-11-20T07:33:49;93655.47;;;20.80;46.51
7335;BME280;3708;42.632;23.378;2022-11-20T07:36:21;93650.25;;;20.69;46.29
7335;BME280;3708;42.632;23.378;2022-11-20T07:38:50;93649.91;;;21.01;46.11
7335;BME280;3708;42.632;23.378;2022-11-20T07:41:22;93642.94;;;21.14;45.91
7335;BME280;3708;42.632;23.378;2022-11-20T07:44:06;93658.19;;;21.10;45.57
7335;BME280;3708;42.632;23.378;2022-11-20T07:46:38;93653.50;;;21.21;45.74
7335;BME280;3708;42.632;23.378;2022-11-20T07:49:17;93649.31;;;20.86;46.12
7335;BME280;3708;42.632;23.378;2022-11-20T07:51:51;93641.03;;;20.81;46.80
7335;BME280;3708;42.632;23.378;2022-11-20T07:54:21;93649.72;;;20.85;46.68
7335;BME280;3708;42.632;23.378;2022-11-20T07:56:49;93650.38;;;20.59;47.23
7335;BME280;3708;42.632;23.378;2022-11-20T07:59:24;93648.66;;;20.75;47.05
7335;BME280;3708;42.632;23.378;2022-11-20T08:02:02;93664.44;;;20.93;46.87
7335;BME280;3708;42.632;23.378;2022-11-20T08:04:31;93659.81;;;21.00;46.71
7335;BME280;3708;42.632;23.378;2022-11-20T08:06:58;93659.63;;;21.18;46.27
7335;BME280;3708;42.632;23.378;2022-11-20T08:09:43;93651.16;;;21.26;46.07
7335;BME280;3708;42.632;23.378;2022-11-20T08:12:17;93654.75;;;21.13;46.26
7335;BME280;3708;42.632;23.378;2022-11-20T08:15:02;93636.13;;;21.13;46.07
7335;BME280;3708;42.632;23.378;2022-11-20T08:17:31;93633.47;;;21.09;46.33
7335;BME280;3708;42.632;23.378;2022-11-20T08:19:58;93631.72;;;21.30;46.31
7335;BME280;3708;42.632;23.378;2022-11-20T08:22:25;93630.50;;;21.34;45.36
7335;BME280;3708;42.632;23.378;2022-11-20T08:24:53;93637.94;;;21.46;45.12
7335;BME280;3708;42.632;23.378;2022-11-20T08:27:21;93651.75;;;21.41;45.20
7335;BME280;3708;42.632;23.378;2022-11-20T08:29:48;93656.69;;;21.69;44.78
7335;BME280;3708;42.632;23.378;2022-11-20T08:32:15;93657.19;;;21.87;44.12
7335;BME280;3708;42.632;23.378;2022-11-20T08:34:47;93659.50;;;22.12;43.97
7335;BME280;3708;42.632;23.378;2022-11-20T08:37:18;93658.50;;;22.26;43.33
7335;BME280;3708;42.632;23.378;2022-11-20T08:39:46;93661.91;;;22.30;42.86
7335;BME280;3708;42.632;23.378;2022-11-20T08:42:14;93659.22;;;22.30;42.72
7335;BME280;3708;42.632;23.378;2022-11-20T08:44:42;93669.38;;;22.38;42.47
7335;BME280;3708;42.632;23.378;2022-11-20T08:47:14;93674.50;;;22.26;42.42
7335;BME280;3708;42.632;23.378;2022-11-20T08:49:53;93691.59;;;22.32;42.01
7335;BME280;3708;42.632;23.378;2022-11-20T08:52:25;93693.13;;;22.06;42.31
7335;BME280;3708;42.632;23.378;2022-11-20T08:54:53;93705.53;;;21.59;43.59
7335;BME280;3708;42.632;23.378;2022-11-20T08:57:20;93698.09;;;21.74;44.22
7335;BME280;3708;42.632;23.378;2022-11-20T08:59:49;93693.19;;;21.72;44.41
7335;BME280;3708;42.632;23.378;2022-11-20T09:02:16;93704.19;;;21.48;43.38
7335;BME280;3708;42.632;23.378;2022-11-20T09:04:43;93694.13;;;21.28;45.97
7335;BME280;3708;42.632;23.378;2022-11-20T09:07:19;93700.88;;;21.67;44.30
7335;BME280;3708;42.632;23.378;2022-11-20T09:10:07;93687.72;;;21.53;43.43
7335;BME280;3708;42.632;23.378;2022-11-20T09:12:48;93698.00;;;20.83;45.83
7335;BME280;3708;42.632;23.378;2022-11-20T09:15:27;93701.69;;;20.96;45.55
7335;BME280;3708;42.632;23.378;2022-11-20T09:18:01;93700.44;;;20.23;47.73
7335;BME280;3708;42.632;23.378;2022-11-20T09:20:32;93700.88;;;20.14;48.01
7335;BME280;3708;42.632;23.378;2022-11-20T09:23:04;93697.25;;;19.87;48.95
7335;BME280;3708;42.632;23.378;2022-11-20T09:25:38;93683.75;;;19.64;49.60
7335;BME280;3708;42.632;23.378;2022-11-20T09:28:07;93695.63;;;20.04;49.63
7335;BME280;3708;42.632;23.378;2022-11-20T09:30:35;93693.38;;;20.02;50.08
7335;BME280;3708;42.632;23.378;2022-11-20T09:33:11;93690.03;;;20.42;49.69
7335;BME280;3708;42.632;23.378;2022-11-20T09:35:40;93690.88;;;20.32;50.05
7335;BME280;3708;42.632;23.378;2022-11-20T09:38:29;93683.53;;;20.47;50.34
7335;BME280;3708;42.632;23.378;2022-11-20T09:40:58;93675.25;;;20.38;50.57
7335;BME280;3708;42.632;23.378;2022-11-20T09:43:37;93676.09;;;20.28;49.55
7335;BME280;3708;42.632;23.378;2022-11-20T09:46:10;93687.41;;;20.39;50.53
7335;BME280;3708;42.632;23.378;2022-11-20T09:48:54;93674.63;;;20.64;51.10
7335;BME280;3708;42.632;23.378;2022-11-20T09:51:35;93675.78;;;21.04;50.56
7335;BME280;3708;42.632;23.378;2022-11-20T09:54:27;93655.81;;;20.85;51.42
7335;BME280;3708;42.632;23.378;2022-11-20T09:57:03;93667.91;;;20.90;51.94
7335;BME280;3708;42.632;23.378;2022-11-20T10:00:00;93657.53;;;20.99;51.26
7335;BME280;3708;42.632;23.378;2022-11-20T10:02:48;93649.78;;;21.15;51.76
7335;BME280;3708;42.632;23.378;2022-11-20T10:05:25;93658.06;;;21.20;50.83
7335;BME280;3708;42.632;23.378;2022-11-20T10:08:13;93682.25;;;21.33;50.27
7335;BME280;3708;42.632;23.378;2022-11-20T10:10:58;93669.84;;;21.53;49.07
7335;BME280;3708;42.632;23.378;2022-11-20T10:13:45;93633.19;;;21.04;49.34
7335;BME280;3708;42.632;23.378;2022-11-20T10:16:27;93635.75;;;21.11;49.02
7335;BME280;3708;42.632;23.378;2022-11-20T10:19:30;93643.16;;;21.26;49.49
7335;BME280;3708;42.632;23.378;2022-11-20T10:22:20;93629.81;;;21.30;49.01
7335;BME280;3708;42.632;23.378;2022-11-20T10:25:00;93614.88;;;21.36;48.71
7335;BME280;3708;42.632;23.378;2022-11-20T10:28:13;93622.38;;;21.14;49.31
7335;BME280;3708;42.632;23.378;2022-11-20T10:30:57;93624.84;;;21.32;49.27
7335;BME280;3708;42.632;23.378;2022-11-20T10:33:31;93628.47;;;21.15;49.61
7335;BME280;3708;42.632;23.378;2022-11-20T10:36:06;93633.75;;;20.85;50.61
7335;BME280;3708;42.632;23.378;2022-11-20T10:38:40;93633.69;;;21.22;50.34
7335;BME280;3708;42.632;23.378;2022-11-20T10:41:15;93635.00;;;21.41;50.72
7335;BME280;3708;42.632;23.378;2022-11-20T10:44:01;93631.44;;;21.20;51.03
7335;BME280;3708;42.632;23.378;2022-11-20T10:46:36;93634.31;;;21.33;50.77
7335;BME280;3708;42.632;23.378;2022-11-20T10:49:14;93636.53;;;21.38;51.63
7335;BME280;3708;42.632;23.378;2022-11-20T10:51:52;93628.97;;;21.06;52.29
7335;BME280;3708;42.632;23.378;2022-11-20T10:54:31;93659.56;;;20.88;52.60
7335;BME280;3708;42.632;23.378;2022-11-20T10:57:05;93661.16;;;20.82;52.62
7335;BME280;3708;42.632;23.378;2022-11-20T10:59:51;93649.25;;;20.12;54.26
7335;BME280;3708;42.632;23.378;2022-11-20T11:02:23;93651.97;;;20.05;54.30
7335;BME280;3708;42.632;23.378;2022-11-20T11:04:51;93662.13;;;19.62;55.55
7335;BME280;3708;42.632;23.378;2022-11-20T11:07:22;93679.13;;;19.75;55.72
7335;BME280;3708;42.632;23.378;2022-11-20T11:09:52;93674.50;;;19.86;55.92
7335;BME280;3708;42.632;23.378;2022-11-20T11:12:20;93690.00;;;19.19;57.64
7335;BME280;3708;42.632;23.378;2022-11-20T11:15:14;93709.66;;;19.42;56.83
7335;BME280;3708;42.632;23.378;2022-11-20T11:17:47;93720.41;;;18.96;57.87
7335;BME280;3708;42.632;23.378;2022-11-20T11:20:17;93740.16;;;18.28;60.46
7335;BME280;3708;42.632;23.378;2022-11-20T11:22:47;93750.78;;;18.32;60.80
7335;BME280;3708;42.632;23.378;2022-11-20T11:25:24;93708.19;;;17.47;64.69
7335;BME280;3708;42.632;23.378;2022-11-20T11:27:53;93698.47;;;16.80;64.79
7335;BME280;3708;42.632;23.378;2022-11-20T11:30:23;93695.72;;;16.62;63.81
7335;BME280;3708;42.632;23.378;2022-11-20T11:32:50;93706.47;;;16.97;62.38
7335;BME280;3708;42.632;23.378;2022-11-20T11:35:28;93711.25;;;16.20;61.06
7335;BME280;3708;42.632;23.378;2022-11-20T11:38:03;93735.06;;;16.70;59.70
7335;BME280;3708;42.632;23.378;2022-11-20T11:40:32;93726.38;;;16.70;58.38
7335;BME280;3708;42.632;23.378;2022-11-20T11:43:04;93718.22;;;16.96;55.46
7335;BME280;3708;42.632;23.378;2022-11-20T11:45:54;93729.25;;;17.16;56.21
7335;BME280;3708;42.632;23.378;2022-11-20T11:48:21;93709.06;;;16.83;55.64
7335;BME280;3708;42.632;23.378;2022-11-20T11:50:49;93701.84;;;16.76;55.83
7335;BME280;3708;42.632;23.378;2022-11-20T11:53:19;93722.63;;;16.74;56.80
7335;BME280;3708;42.632;23.378;2022-11-20T11:55:54;93690.56;;;16.83;55.86
7335;BME280;3708;42.632;23.378;2022-11-20T11:58:34;93702.38;;;16.42;56.54
7335;BME280;3708;42.632;23.378;2022-11-20T12:01:20;93679.34;;;16.39;55.97
7335;BME280;3708;42.632;23.378;2022-11-20T12:03:58;93671.28;;;16.25;54.51
7335;BME280;3708;42.632;23.378;2022-11-20T12:06:28;93655.44;;;16.25;55.72
7335;BME280;3708;42.632;23.378;2022-11-20T12:09:01;93671.88;;;16.51;54.77
7335;BME280;3708;42.632;23.378;2022-11-20T12:11:33;93683.31;;;16.15;56.22
7335;BME280;3708;42.632;23.378;2022-11-20T12:14:11;93690.25;;;16.37;55.87
7335;BME280;3708;42.632;23.378;2022-11-20T12:16:41;93692.94;;;15.93;57.13
7335;BME280;3708;42.632;23.378;2022-11-20T12:19:11;93682.28;;;15.83;57.26
7335;BME280;3708;42.632;23.378;2022-11-20T12:21:56;93691.41;;;15.89;56.81
7335;BME280;3708;42.632;23.378;2022-11-20T12:24:40;93705.53;;;15.70;57.32
7335;BME280;3708;42.632;23.378;2022-11-20T12:30:08;93701.19;;;15.48;57.57
7335;BME280;3708;42.632;23.378;2022-11-20T12:35:35;93695.81;;;15.41;57.48
7335;BME280;3708;42.632;23.378;2022-11-20T12:38:26;93698.06;;;15.43;56.70
7335;BME280;3708;42.632;23.378;2022-11-20T12:41:02;93676.50;;;15.70;57.07
7335;BME280;3708;42.632;23.378;2022-11-20T12:43:36;93598.53;;;15.83;55.85
7335;BME280;3708;42.632;23.378;2022-11-20T12:46:29;93596.97;;;16.30;55.30
7335;BME280;3708;42.632;23.378;2022-11-20T12:49:23;93600.13;;;16.56;55.75
7335;BME280;3708;42.632;23.378;2022-11-20T12:52:06;93590.78;;;16.73;56.42
7335;BME280;3708;42.632;23.378;2022-11-20T12:55:03;93587.06;;;16.92;56.55
7335;BME280;3708;42.632;23.378;2022-11-20T12:57:41;93578.03;;;17.03;56.47
7335;BME280;3708;42.632;23.378;2022-11-20T13:00:17;93564.41;;;16.98;57.64
7335;BME280;3708;42.632;23.378;2022-11-20T13:03:05;93554.56;;;16.88;58.91
7335;BME280;3708;42.632;23.378;2022-11-20T13:05:43;93547.75;;;16.90;58.99
7335;BME280;3708;42.632;23.378;2022-11-20T13:08:20;93547.28;;;16.67;59.98
7335;BME280;3708;42.632;23.378;2022-11-20T13:10:52;93554.50;;;16.70;59.67
7335;BME280;3708;42.632;23.378;2022-11-20T13:13:29;93565.88;;;16.85;58.83
7335;BME280;3708;42.632;23.378;2022-11-20T13:16:06;93590.44;;;16.89;58.78
7335;BME280;3708;42.632;23.378;2022-11-20T13:18:42;93608.31;;;15.76;60.92
7335;BME280;3708;42.632;23.378;2022-11-20T13:21:35;93604.56;;;15.40;62.94
7335;BME280;3708;42.632;23.378;2022-11-20T13:24:24;93600.81;;;15.85;61.87
7335;BME280;3708;42.632;23.378;2022-11-20T13:27:18;93600.00;;;16.32;60.44
7335;BME280;3708;42.632;23.378;2022-11-20T13:30:02;93620.88;;;16.51;59.75
7335;BME280;3708;42.632;23.378;2022-11-20T13:32:47;93630.16;;;16.92;59.03
7335;BME280;3708;42.632;23.378;2022-11-20T13:35:30;93627.91;;;17.08;57.50
7335;BME280;3708;42.632;23.378;2022-11-20T13:38:19;93633.41;;;16.03;59.52
7335;BME280;3708;42.632;23.378;2022-11-20T13:40:55;93634.16;;;15.56;61.98